sensor_id;sensor_type;location;lat;lon;timestamp;P1;durP1;ratioP1;P2;durP2;ratioP2
62037;SDS011;47991;42.974;12.082;2023-06-04T00:00:26;8.20;;;3.50;;
62037;SDS011;47991;42.974;12.082;2023-06-04T00:03:12;7.70;;;3.90;;
62037;SDS011;47991;42.974;12.082;2023-06-04T00:05:38;7.30;;;3.50;;
62037;SDS011;47991;42.974;12.082;2023-06-04T00:08:05;9.40;;;4.30;;
62037;SDS011;47991;42.974;12.082;2023-06-04T00:10:31;10.10;;;4.20;;
62037;SDS011;47991;42.974;12.082;2023-06-04T00:12:59;9.20;;;3.90;;
62037;SDS011;47991;42.974;12.082;2023-06-04T00:15:26;10.20;;;3.90;;
62037;SDS011;47991;42.974;12.082;2023-06-04T00:17:52;10.90;;;3.90;;
62037;SDS011;47991;42.974;12.082;2023-06-04T00:20:18;8.30;;;3.60;;
62037;SDS011;47991;42.974;12.082;2023-06-04T00:22:44;7.30;;;3.50;;
62037;SDS011;47991;42.974;12.082;2023-06-04T00:25:11;8.60;;;3.50;;
62037;SDS011;47991;42.974;12.082;2023-06-04T00:27:37;9.40;;;4.20;;
62037;SDS011;47991;42.974;12.082;2023-06-04T00:30:03;7.80;;;3.80;;
62037;SDS011;47991;42.974;12.082;2023-06-04T00:32:30;9.20;;;3.80;;
62037;SDS011;47991;42.974;12.082;2023-06-04T00:34:57;6.60;;;3.30;;
62037;SDS011;47991;42.974;12.082;2023-06-04T00:37:27;8.10;;;4.20;;
62037;SDS011;47991;42.974;12.082;2023-06-04T00:39:54;9.70;;;4.30;;
62037;SDS011;47991;42.974;12.082;2023-06-04T00:42:21;7.60;;;4.30;;
62037;SDS011;47991;42.974;12.082;2023-06-04T00:44:47;11.10;;;4.80;;
62037;SDS011;47991;42.974;12.082;2023-06-04T00:47:14;7.40;;;4.30;;
62037;SDS011;47991;42.974;12.082;2023-06-04T00:49:41;7.40;;;3.70;;
62037;SDS011;47991;42.974;12.082;2023-06-04T00:52:08;12.10;;;3.80;;
62037;SDS011;47991;42.974;12.082;2023-06-04T00:54:35;8.60;;;3.90;;
62037;SDS011;47991;42.974;12.082;2023-06-04T00:57:02;7.70;;;3.80;;
62037;SDS011;47991;42.974;12.082;2023-06-04T00:59:30;8.30;;;3.40;;
62037;SDS011;47991;42.974;12.082;2023-06-04T01:07:36;12.00;;;4.10;;
62037;SDS011;47991;42.974;12.082;2023-06-04T01:10:03;9.50;;;4.80;;
62037;SDS011;47991;42.974;12.082;2023-06-04T01:12:29;8.60;;;4.60;;
62037;SDS011;47991;42.974;12.082;2023-06-04T01:14:55;8.30;;;4.10;;
62037;SDS011;47991;42.974;12.082;2023-06-04T01:25:21;10.80;;;3.90;;
62037;SDS011;47991;42.974;12.082;2023-06-04T01:27:54;8.90;;;3.90;;
62037;SDS011;47991;42.974;12.082;2023-06-04T01:30:26;9.50;;;4.40;;
62037;SDS011;47991;42.974;12.082;2023-06-04T01:33:09;9.20;;;4.10;;
62037;SDS011;47991;42.974;12.082;2023-06-04T01:35:36;8.10;;;3.90;;
62037;SDS011;47991;42.974;12.082;2023-06-04T01:38:03;9.50;;;3.80;;
62037;SDS011;47991;42.974;12.082;2023-06-04T01:40:29;9.60;;;4.60;;
62037;SDS011;47991;42.974;12.082;2023-06-04T01:42:56;8.30;;;4.10;;
62037;SDS011;47991;42.974;12.082;2023-06-04T01:45:25;7.30;;;4.10;;
62037;SDS011;47991;42.974;12.082;2023-06-04T01:47:52;9.50;;;4.60;;
62037;SDS011;47991;42.974;12.082;2023-06-04T01:50:19;8.20;;;4.60;;
62037;SDS011;47991;42.974;12.082;2023-06-04T01:52:46;11.40;;;5.40;;
62037;SDS011;47991;42.974;12.082;2023-06-04T01:55:13;7.80;;;3.90;;
62037;SDS011;47991;42.974;12.082;2023-06-04T01:57:41;8.50;;;4.70;;
62037;SDS011;47991;42.974;12.082;2023-06-04T02:00:10;8.20;;;4.40;;
62037;SDS011;47991;42.974;12.082;2023-06-04T02:02:37;9.70;;;5.30;;
62037;SDS011;47991;42.974;12.082;2023-06-04T02:05:05;8.80;;;4.50;;
62037;SDS011;47991;42.974;12.082;2023-06-04T02:07:34;10.70;;;5.10;;
62037;SDS011;47991;42.974;12.082;2023-06-04T02:10:01;10.80;;;5.20;;
62037;SDS011;47991;42.974;12.082;2023-06-04T02:12:27;8.80;;;4.80;;
62037;SDS011;47991;42.974;12.082;2023-06-04T02:14:53;9.90;;;4.90;;
62037;SDS011;47991;42.974;12.082;2023-06-04T02:17:19;11.90;;;5.00;;
62037;SDS011;47991;42.974;12.082;2023-06-04T02:19:46;12.60;;;4.70;;
62037;SDS011;47991;42.974;12.082;2023-06-04T02:22:16;9.60;;;5.10;;
62037;SDS011;47991;42.974;12.082;2023-06-04T02:24:44;13.20;;;4.60;;
62037;SDS011;47991;42.974;12.082;2023-06-04T02:27:11;9.50;;;3.80;;
62037;SDS011;47991;42.974;12.082;2023-06-04T02:29:39;11.00;;;4.60;;
62037;SDS011;47991;42.974;12.082;2023-06-04T02:32:06;10.10;;;5.10;;
62037;SDS011;47991;42.974;12.082;2023-06-04T02:34:34;10.10;;;6.00;;
62037;SDS011;47991;42.974;12.082;2023-06-04T02:37:00;8.80;;;5.40;;
62037;SDS011;47991;42.974;12.082;2023-06-04T02:39:27;10.60;;;4.80;;
62037;SDS011;47991;42.974;12.082;2023-06-04T02:41:54;9.10;;;4.80;;
62037;SDS011;47991;42.974;12.082;2023-06-04T02:44:21;10.70;;;5.20;;
62037;SDS011;47991;42.974;12.082;2023-06-04T02:46:47;9.00;;;4.50;;
62037;SDS011;47991;42.974;12.082;2023-06-04T02:49:13;9.50;;;4.60;;
62037;SDS011;47991;42.974;12.082;2023-06-04T02:51:42;9.10;;;4.60;;
62037;SDS011;47991;42.974;12.082;2023-06-04T02:54:09;10.50;;;4.70;;
62037;SDS011;47991;42.974;12.082;2023-06-04T02:56:35;8.70;;;4.70;;
62037;SDS011;47991;42.974;12.082;2023-06-04T02:59:03;8.80;;;5.20;;
62037;SDS011;47991;42.974;12.082;2023-06-04T03:01:30;12.10;;;5.70;;
62037;SDS011;47991;42.974;12.082;2023-06-04T03:03:57;12.60;;;6.70;;
62037;SDS011;47991;42.974;12.082;2023-06-04T03:06:23;13.50;;;6.80;;
62037;SDS011;47991;42.974;12.082;2023-06-04T03:08:50;13.60;;;6.60;;
62037;SDS011;47991;42.974;12.082;2023-06-04T03:11:17;14.00;;;6.40;;
62037;SDS011;47991;42.974;12.082;2023-06-04T03:13:46;16.00;;;7.00;;
62037;SDS011;47991;42.974;12.082;2023-06-04T03:16:14;19.60;;;8.40;;
62037;SDS011;47991;42.974;12.082;2023-06-04T03:18:41;16.10;;;8.10;;
62037;SDS011;47991;42.974;12.082;2023-06-04T03:21:08;22.10;;;7.90;;
62037;SDS011;47991;42.974;12.082;2023-06-04T03:23:35;16.50;;;8.60;;
62037;SDS011;47991;42.974;12.082;2023-06-04T03:26:02;22.40;;;9.80;;
62037;SDS011;47991;42.974;12.082;2023-06-04T03:28:29;20.40;;;8.80;;
62037;SDS011;47991;42.974;12.082;2023-06-04T03:30:55;27.80;;;9.80;;
62037;SDS011;47991;42.974;12.082;2023-06-04T03:33:22;27.30;;;11.00;;
62037;SDS011;47991;42.974;12.082;2023-06-04T03:35:52;34.80;;;11.20;;
62037;SDS011;47991;42.974;12.082;2023-06-04T03:38:18;24.80;;;9.70;;
62037;SDS011;47991;42.974;12.082;2023-06-04T03:40:45;21.20;;;8.00;;
62037;SDS011;47991;42.974;12.082;2023-06-04T03:43:12;17.90;;;7.70;;
62037;SDS011;47991;42.974;12.082;2023-06-04T03:45:38;20.10;;;6.70;;
62037;SDS011;47991;42.974;12.082;2023-06-04T03:48:04;19.50;;;7.10;;
62037;SDS011;47991;42.974;12.082;2023-06-04T03:50:30;17.60;;;7.60;;
62037;SDS011;47991;42.974;12.082;2023-06-04T03:52:57;24.70;;;9.10;;
62037;SDS011;47991;42.974;12.082;2023-06-04T03:55:23;26.30;;;8.90;;
62037;SDS011;47991;42.974;12.082;2023-06-04T03:57:50;24.30;;;7.80;;
62037;SDS011;47991;42.974;12.082;2023-06-04T04:00:16;30.00;;;8.50;;
62037;SDS011;47991;42.974;12.082;2023-06-04T04:02:42;12.80;;;7.00;;
62037;SDS011;47991;42.974;12.082;2023-06-04T04:05:09;16.40;;;7.40;;
62037;SDS011;47991;42.974;12.082;2023-06-04T04:07:36;27.80;;;7.80;;
62037;SDS011;47991;42.974;12.082;2023-06-04T04:10:03;17.00;;;6.90;;
62037;SDS011;47991;42.974;12.082;2023-06-04T04:12:31;24.70;;;8.20;;
62037;SDS011;47991;42.974;12.082;2023-06-04T04:14:57;22.40;;;7.80;;
62037;SDS011;47991;42.974;12.082;2023-06-04T04:17:25;23.50;;;7.70;;
62037;SDS011;47991;42.974;12.082;2023-06-04T04:19:51;21.70;;;8.00;;
62037;SDS011;47991;42.974;12.082;2023-06-04T04:22:17;16.20;;;7.50;;
62037;SDS011;47991;42.974;12.082;2023-06-04T04:24:44;15.40;;;7.50;;
62037;SDS011;47991;42.974;12.082;2023-06-04T04:27:10;10.40;;;6.70;;
62037;SDS011;47991;42.974;12.082;2023-06-04T04:29:41;21.40;;;8.30;;
62037;SDS011;47991;42.974;12.082;2023-06-04T04:32:25;11.40;;;7.60;;
62037;SDS011;47991;42.974;12.082;2023-06-04T04:34:53;27.20;;;6.50;;
62037;SDS011;47991;42.974;12.082;2023-06-04T04:37:21;12.90;;;6.90;;
62037;SDS011;47991;42.974;12.082;2023-06-04T04:39:47;13.00;;;7.40;;
62037;SDS011;47991;42.974;12.082;2023-06-04T04:42:20;11.00;;;6.30;;
62037;SDS011;47991;42.974;12.082;2023-06-04T04:44:46;17.60;;;6.40;;
62037;SDS011;47991;42.974;12.082;2023-06-04T04:47:14;10.20;;;5.40;;
62037;SDS011;47991;42.974;12.082;2023-06-04T04:49:41;15.60;;;6.50;;
62037;SDS011;47991;42.974;12.082;2023-06-04T04:52:07;11.60;;;5.50;;
62037;SDS011;47991;42.974;12.082;2023-06-04T04:54:34;17.60;;;5.70;;
62037;SDS011;47991;42.974;12.082;2023-06-04T04:57:00;9.90;;;5.60;;
62037;SDS011;47991;42.974;12.082;2023-06-04T04:59:26;9.70;;;6.40;;
62037;SDS011;47991;42.974;12.082;2023-06-04T05:01:53;9.30;;;4.70;;
62037;SDS011;47991;42.974;12.082;2023-06-04T05:04:19;11.10;;;5.10;;
62037;SDS011;47991;42.974;12.082;2023-06-04T05:06:45;11.10;;;5.90;;
62037;SDS011;47991;42.974;12.082;2023-06-04T05:09:12;10.80;;;5.60;;
62037;SDS011;47991;42.974;12.082;2023-06-04T05:11:38;7.80;;;5.10;;
62037;SDS011;47991;42.974;12.082;2023-06-04T05:14:04;9.10;;;5.60;;
62037;SDS011;47991;42.974;12.082;2023-06-04T05:16:31;14.90;;;5.50;;
62037;SDS011;47991;42.974;12.082;2023-06-04T05:18:57;8.20;;;4.80;;
62037;SDS011;47991;42.974;12.082;2023-06-04T05:21:23;10.00;;;5.60;;
62037;SDS011;47991;42.974;12.082;2023-06-04T05:23:50;9.00;;;5.80;;
62037;SDS011;47991;42.974;12.082;2023-06-04T05:26:16;14.30;;;5.20;;
62037;SDS011;47991;42.974;12.082;2023-06-04T05:28:43;10.90;;;5.30;;
62037;SDS011;47991;42.974;12.082;2023-06-04T05:31:10;9.20;;;5.00;;
62037;SDS011;47991;42.974;12.082;2023-06-04T05:33:38;8.50;;;5.10;;
62037;SDS011;47991;42.974;12.082;2023-06-04T05:36:05;17.30;;;5.50;;
62037;SDS011;47991;42.974;12.082;2023-06-04T05:38:31;8.10;;;4.90;;
62037;SDS011;47991;42.974;12.082;2023-06-04T05:40:58;10.70;;;5.50;;
62037;SDS011;47991;42.974;12.082;2023-06-04T05:43:24;11.40;;;5.60;;
62037;SDS011;47991;42.974;12.082;2023-06-04T05:45:51;12.10;;;6.40;;
62037;SDS011;47991;42.974;12.082;2023-06-04T05:48:17;10.00;;;5.50;;
62037;SDS011;47991;42.974;12.082;2023-06-04T05:50:43;8.60;;;5.40;;
62037;SDS011;47991;42.974;12.082;2023-06-04T05:53:10;13.20;;;5.30;;
62037;SDS011;47991;42.974;12.082;2023-06-04T05:55:36;9.30;;;5.20;;
62037;SDS011;47991;42.974;12.082;2023-06-04T05:58:03;11.70;;;5.60;;
62037;SDS011;47991;42.974;12.082;2023-06-04T06:00:29;13.10;;;7.00;;
62037;SDS011;47991;42.974;12.082;2023-06-04T06:02:56;12.40;;;6.50;;
62037;SDS011;47991;42.974;12.082;2023-06-04T06:05:22;11.80;;;6.10;;
62037;SDS011;47991;42.974;12.082;2023-06-04T06:07:48;8.30;;;4.00;;
62037;SDS011;47991;42.974;12.082;2023-06-04T06:10:14;9.30;;;5.40;;
62037;SDS011;47991;42.974;12.082;2023-06-04T06:12:41;11.60;;;6.30;;
62037;SDS011;47991;42.974;12.082;2023-06-04T06:15:08;10.90;;;5.90;;
62037;SDS011;47991;42.974;12.082;2023-06-04T06:17:34;9.50;;;6.40;;
62037;SDS011;47991;42.974;12.082;2023-06-04T06:20:01;9.60;;;6.60;;
62037;SDS011;47991;42.974;12.082;2023-06-04T06:22:31;11.40;;;5.90;;
62037;SDS011;47991;42.974;12.082;2023-06-04T06:24:58;11.50;;;7.20;;
62037;SDS011;47991;42.974;12.082;2023-06-04T06:27:24;11.60;;;6.20;;
62037;SDS011;47991;42.974;12.082;2023-06-04T06:29:51;12.40;;;8.70;;
62037;SDS011;47991;42.974;12.082;2023-06-04T06:32:17;12.60;;;8.20;;
62037;SDS011;47991;42.974;12.082;2023-06-04T06:34:43;11.50;;;7.60;;
62037;SDS011;47991;42.974;12.082;2023-06-04T06:37:09;19.80;;;9.50;;
62037;SDS011;47991;42.974;12.082;2023-06-04T06:39:35;15.50;;;10.20;;
62037;SDS011;47991;42.974;12.082;2023-06-04T06:42:02;17.50;;;10.00;;
62037;SDS011;47991;42.974;12.082;2023-06-04T06:44:28;14.90;;;11.00;;
62037;SDS011;47991;42.974;12.082;2023-06-04T06:46:54;15.30;;;10.60;;
62037;SDS011;47991;42.974;12.082;2023-06-04T06:49:20;15.30;;;11.00;;
62037;SDS011;47991;42.974;12.082;2023-06-04T06:51:46;14.80;;;10.70;;
62037;SDS011;47991;42.974;12.082;2023-06-04T06:54:15;16.90;;;9.90;;
62037;SDS011;47991;42.974;12.082;2023-06-04T06:56:42;14.30;;;9.60;;
62037;SDS011;47991;42.974;12.082;2023-06-04T06:59:08;19.10;;;13.00;;
62037;SDS011;47991;42.974;12.082;2023-06-04T07:01:34;22.00;;;13.90;;
62037;SDS011;47991;42.974;12.082;2023-06-04T07:04:01;22.40;;;14.90;;
62037;SDS011;47991;42.974;12.082;2023-06-04T07:06:27;26.90;;;16.00;;
62037;SDS011;47991;42.974;12.082;2023-06-04T07:08:53;22.40;;;14.50;;
62037;SDS011;47991;42.974;12.082;2023-06-04T07:11:20;19.10;;;14.30;;
62037;SDS011;47991;42.974;12.082;2023-06-04T07:13:47;20.90;;;13.60;;
62037;SDS011;47991;42.974;12.082;2023-06-04T07:16:13;19.00;;;13.60;;
62037;SDS011;47991;42.974;12.082;2023-06-04T07:18:39;18.00;;;11.40;;
62037;SDS011;47991;42.974;12.082;2023-06-04T07:21:06;18.80;;;14.20;;
62037;SDS011;47991;42.974;12.082;2023-06-04T07:23:32;20.40;;;13.00;;
62037;SDS011;47991;42.974;12.082;2023-06-04T07:25:58;24.30;;;14.70;;
62037;SDS011;47991;42.974;12.082;2023-06-04T07:28:24;21.60;;;14.00;;
62037;SDS011;47991;42.974;12.082;2023-06-04T07:30:50;21.50;;;14.00;;
62037;SDS011;47991;42.974;12.082;2023-06-04T07:33:16;17.70;;;12.80;;
62037;SDS011;47991;42.974;12.082;2023-06-04T07:35:42;17.70;;;13.40;;
62037;SDS011;47991;42.974;12.082;2023-06-04T07:38:08;14.40;;;10.10;;
62037;SDS011;47991;42.974;12.082;2023-06-04T07:40:35;10.80;;;7.30;;
62037;SDS011;47991;42.974;12.082;2023-06-04T07:43:01;11.00;;;8.10;;
62037;SDS011;47991;42.974;12.082;2023-06-04T07:45:27;10.50;;;7.30;;
62037;SDS011;47991;42.974;12.082;2023-06-04T07:47:55;11.70;;;7.40;;
62037;SDS011;47991;42.974;12.082;2023-06-04T07:50:21;10.30;;;6.00;;
62037;SDS011;47991;42.974;12.082;2023-06-04T07:52:47;9.90;;;6.90;;
62037;SDS011;47991;42.974;12.082;2023-06-04T07:55:14;9.50;;;6.80;;
62037;SDS011;47991;42.974;12.082;2023-06-04T07:57:40;10.70;;;7.10;;
62037;SDS011;47991;42.974;12.082;2023-06-04T08:00:07;11.80;;;7.80;;
62037;SDS011;47991;42.974;12.082;2023-06-04T08:02:34;9.80;;;7.20;;
62037;SDS011;47991;42.974;12.082;2023-06-04T08:05:00;12.00;;;8.80;;
62037;SDS011;47991;42.974;12.082;2023-06-04T08:07:29;12.90;;;9.70;;
62037;SDS011;47991;42.974;12.082;2023-06-04T08:09:56;10.20;;;7.00;;
62037;SDS011;47991;42.974;12.082;2023-06-04T08:12:22;10.70;;;7.20;;
62037;SDS011;47991;42.974;12.082;2023-06-04T08:14:48;13.50;;;8.00;;
62037;SDS011;47991;42.974;12.082;2023-06-04T08:17:16;11.10;;;7.70;;
62037;SDS011;47991;42.974;12.082;2023-06-04T08:19:42;11.50;;;8.40;;
62037;SDS011;47991;42.974;12.082;2023-06-04T08:22:08;10.40;;;6.50;;
62037;SDS011;47991;42.974;12.082;2023-06-04T08:24:37;9.90;;;7.40;;
62037;SDS011;47991;42.974;12.082;2023-06-04T08:27:03;10.20;;;7.00;;
62037;SDS011;47991;42.974;12.082;2023-06-04T08:29:30;10.20;;;7.20;;
62037;SDS011;47991;42.974;12.082;2023-06-04T08:31:56;9.40;;;7.00;;
62037;SDS011;47991;42.974;12.082;2023-06-04T08:34:22;9.30;;;6.90;;
62037;SDS011;47991;42.974;12.082;2023-06-04T08:36:49;10.60;;;7.20;;
62037;SDS011;47991;42.974;12.082;2023-06-04T08:39:15;9.70;;;7.10;;
62037;SDS011;47991;42.974;12.082;2023-06-04T08:41:45;9.00;;;6.30;;
62037;SDS011;47991;42.974;12.082;2023-06-04T08:44:15;9.50;;;6.90;;
62037;SDS011;47991;42.974;12.082;2023-06-04T08:46:43;10.50;;;6.90;;
62037;SDS011;47991;42.974;12.082;2023-06-04T08:49:11;10.10;;;6.60;;
62037;SDS011;47991;42.974;12.082;2023-06-04T08:51:38;9.80;;;6.80;;
62037;SDS011;47991;42.974;12.082;2023-06-04T08:54:06;9.90;;;6.70;;
62037;SDS011;47991;42.974;12.082;2023-06-04T08:56:34;8.60;;;6.20;;
62037;SDS011;47991;42.974;12.082;2023-06-04T08:59:02;14.10;;;6.40;;
62037;SDS011;47991;42.974;12.082;2023-06-04T09:01:33;11.40;;;6.90;;
62037;SDS011;47991;42.974;12.082;2023-06-04T09:04:01;9.80;;;5.50;;
62037;SDS011;47991;42.974;12.082;2023-06-04T09:06:32;9.50;;;6.70;;
62037;SDS011;47991;42.974;12.082;2023-06-04T09:09:00;10.20;;;6.20;;
62037;SDS011;47991;42.974;12.082;2023-06-04T09:11:32;8.80;;;6.40;;
62037;SDS011;47991;42.974;12.082;2023-06-04T09:14:01;9.40;;;6.80;;
62037;SDS011;47991;42.974;12.082;2023-06-04T09:16:41;10.20;;;7.20;;
62037;SDS011;47991;42.974;12.082;2023-06-04T09:19:11;11.00;;;7.20;;
62037;SDS011;47991;42.974;12.082;2023-06-04T09:21:54;10.70;;;6.70;;
62037;SDS011;47991;42.974;12.082;2023-06-04T09:24:25;9.70;;;7.00;;
62037;SDS011;47991;42.974;12.082;2023-06-04T09:27:15;9.30;;;6.60;;
62037;SDS011;47991;42.974;12.082;2023-06-04T09:29:52;10.00;;;6.50;;
62037;SDS011;47991;42.974;12.082;2023-06-04T09:35:07;11.40;;;6.70;;
62037;SDS011;47991;42.974;12.082;2023-06-04T09:37:38;10.90;;;6.40;;
62037;SDS011;47991;42.974;12.082;2023-06-04T09:40:06;11.60;;;6.80;;
62037;SDS011;47991;42.974;12.082;2023-06-04T09:42:43;14.80;;;8.00;;
62037;SDS011;47991;42.974;12.082;2023-06-04T09:45:09;10.60;;;6.80;;
62037;SDS011;47991;42.974;12.082;2023-06-04T09:47:41;9.00;;;6.40;;
62037;SDS011;47991;42.974;12.082;2023-06-04T09:50:09;9.50;;;6.10;;
62037;SDS011;47991;42.974;12.082;2023-06-04T09:55:18;9.40;;;6.00;;
62037;SDS011;47991;42.974;12.082;2023-06-04T09:57:49;9.50;;;6.20;;
62037;SDS011;47991;42.974;12.082;2023-06-04T10:00:17;11.00;;;7.50;;
62037;SDS011;47991;42.974;12.082;2023-06-04T10:02:46;10.10;;;6.20;;
62037;SDS011;47991;42.974;12.082;2023-06-04T10:05:14;12.60;;;6.90;;
62037;SDS011;47991;42.974;12.082;2023-06-04T10:07:45;11.10;;;6.90;;
62037;SDS011;47991;42.974;12.082;2023-06-04T10:10:15;10.20;;;6.20;;
62037;SDS011;47991;42.974;12.082;2023-06-04T10:12:43;9.30;;;6.40;;
62037;SDS011;47991;42.974;12.082;2023-06-04T10:15:15;8.90;;;5.80;;
62037;SDS011;47991;42.974;12.082;2023-06-04T10:17:43;10.30;;;6.20;;
62037;SDS011;47991;42.974;12.082;2023-06-04T10:20:10;9.50;;;5.90;;
62037;SDS011;47991;42.974;12.082;2023-06-04T10:22:37;18.60;;;6.80;;
62037;SDS011;47991;42.974;12.082;2023-06-04T10:25:04;8.90;;;5.80;;
62037;SDS011;47991;42.974;12.082;2023-06-04T10:27:31;9.20;;;5.30;;
62037;SDS011;47991;42.974;12.082;2023-06-04T10:29:58;9.60;;;5.70;;
62037;SDS011;47991;42.974;12.082;2023-06-04T10:32:28;8.40;;;5.40;;
62037;SDS011;47991;42.974;12.082;2023-06-04T10:34:56;8.40;;;5.00;;
62037;SDS011;47991;42.974;12.082;2023-06-04T10:37:26;7.80;;;4.80;;
62037;SDS011;47991;42.974;12.082;2023-06-04T10:39:55;8.70;;;5.80;;
62037;SDS011;47991;42.974;12.082;2023-06-04T10:42:24;8.80;;;5.90;;
62037;SDS011;47991;42.974;12.082;2023-06-04T10:44:51;12.30;;;6.10;;
62037;SDS011;47991;42.974;12.082;2023-06-04T10:49:46;9.30;;;5.60;;
62037;SDS011;47991;42.974;12.082;2023-06-04T10:52:12;8.00;;;5.50;;
62037;SDS011;47991;42.974;12.082;2023-06-04T10:54:38;10.00;;;5.90;;
62037;SDS011;47991;42.974;12.082;2023-06-04T10:57:14;9.20;;;5.10;;
62037;SDS011;47991;42.974;12.082;2023-06-04T10:59:55;13.50;;;6.30;;
62037;SDS011;47991;42.974;12.082;2023-06-04T11:02:25;8.70;;;5.20;;
62037;SDS011;47991;42.974;12.082;2023-06-04T11:07:45;8.20;;;5.70;;
62037;SDS011;47991;42.974;12.082;2023-06-04T11:10:13;10.40;;;5.80;;
62037;SDS011;47991;42.974;12.082;2023-06-04T11:15:09;8.70;;;5.70;;
62037;SDS011;47991;42.974;12.082;2023-06-04T11:17:36;8.50;;;5.60;;
62037;SDS011;47991;42.974;12.082;2023-06-04T11:20:02;11.40;;;5.60;;
62037;SDS011;47991;42.974;12.082;2023-06-04T11:22:32;10.00;;;6.20;;
62037;SDS011;47991;42.974;12.082;2023-06-04T11:24:59;8.50;;;4.90;;
62037;SDS011;47991;42.974;12.082;2023-06-04T11:27:26;8.80;;;5.60;;
62037;SDS011;47991;42.974;12.082;2023-06-04T11:29:53;11.00;;;5.80;;
62037;SDS011;47991;42.974;12.082;2023-06-04T11:32:23;8.30;;;5.80;;
62037;SDS011;47991;42.974;12.082;2023-06-04T11:34:50;9.80;;;5.70;;
62037;SDS011;47991;42.974;12.082;2023-06-04T11:37:16;8.70;;;6.00;;
62037;SDS011;47991;42.974;12.082;2023-06-04T11:39:42;10.50;;;5.80;;
62037;SDS011;47991;42.974;12.082;2023-06-04T11:42:10;9.00;;;5.40;;
62037;SDS011;47991;42.974;12.082;2023-06-04T11:44:36;8.60;;;5.30;;
62037;SDS011;47991;42.974;12.082;2023-06-04T11:47:06;8.30;;;5.20;;
62037;SDS011;47991;42.974;12.082;2023-06-04T11:49:34;8.90;;;5.50;;
62037;SDS011;47991;42.974;12.082;2023-06-04T11:52:02;9.00;;;6.10;;
62037;SDS011;47991;42.974;12.082;2023-06-04T11:54:28;8.50;;;5.40;;
62037;SDS011;47991;42.974;12.082;2023-06-04T11:56:55;8.90;;;5.60;;
62037;SDS011;47991;42.974;12.082;2023-06-04T11:59:21;8.40;;;5.10;;
62037;SDS011;47991;42.974;12.082;2023-06-04T12:01:48;8.90;;;5.30;;
62037;SDS011;47991;42.974;12.082;2023-06-04T12:04:18;8.70;;;5.70;;
62037;SDS011;47991;42.974;12.082;2023-06-04T12:06:55;11.60;;;6.00;;
62037;SDS011;47991;42.974;12.082;2023-06-04T12:09:30;8.90;;;5.70;;
62037;SDS011;47991;42.974;12.082;2023-06-04T12:11:59;8.10;;;5.00;;
62037;SDS011;47991;42.974;12.082;2023-06-04T12:14:26;9.00;;;5.20;;
62037;SDS011;47991;42.974;12.082;2023-06-04T12:17:05;11.60;;;5.10;;
62037;SDS011;47991;42.974;12.082;2023-06-04T12:19:46;8.30;;;5.20;;
62037;SDS011;47991;42.974;12.082;2023-06-04T12:22:16;8.30;;;5.30;;
62037;SDS011;47991;42.974;12.082;2023-06-04T12:24:49;9.00;;;4.90;;
62037;SDS011;47991;42.974;12.082;2023-06-04T12:27:20;8.50;;;5.30;;
62037;SDS011;47991;42.974;12.082;2023-06-04T12:30:07;8.80;;;4.90;;
62037;SDS011;47991;42.974;12.082;2023-06-04T12:32:36;7.80;;;4.30;;
62037;SDS011;47991;42.974;12.082;2023-06-04T12:35:03;7.70;;;4.50;;
62037;SDS011;47991;42.974;12.082;2023-06-04T12:37:29;8.30;;;4.60;;
62037;SDS011;47991;42.974;12.082;2023-06-04T12:39:56;6.80;;;4.00;;
62037;SDS011;47991;42.974;12.082;2023-06-04T12:42:22;7.70;;;3.90;;
62037;SDS011;47991;42.974;12.082;2023-06-04T12:44:49;7.70;;;3.40;;
62037;SDS011;47991;42.974;12.082;2023-06-04T12:47:15;5.80;;;3.50;;
62037;SDS011;47991;42.974;12.082;2023-06-04T12:49:43;9.10;;;3.70;;
62037;SDS011;47991;42.974;12.082;2023-06-04T12:52:11;6.60;;;3.70;;
62037;SDS011;47991;42.974;12.082;2023-06-04T12:54:37;6.70;;;3.30;;
62037;SDS011;47991;42.974;12.082;2023-06-04T12:57:03;7.80;;;3.70;;
62037;SDS011;47991;42.974;12.082;2023-06-04T12:59:29;6.70;;;3.80;;
62037;SDS011;47991;42.974;12.082;2023-06-04T13:01:55;7.40;;;3.60;;
62037;SDS011;47991;42.974;12.082;2023-06-04T13:04:22;8.50;;;4.10;;
62037;SDS011;47991;42.974;12.082;2023-06-04T13:06:52;7.00;;;4.00;;
62037;SDS011;47991;42.974;12.082;2023-06-04T13:09:21;7.40;;;3.80;;
62037;SDS011;47991;42.974;12.082;2023-06-04T13:11:48;9.10;;;4.30;;
62037;SDS011;47991;42.974;12.082;2023-06-04T13:14:15;10.40;;;4.10;;
62037;SDS011;47991;42.974;12.082;2023-06-04T13:16:41;8.90;;;4.40;;
62037;SDS011;47991;42.974;12.082;2023-06-04T13:19:07;7.40;;;4.20;;
62037;SDS011;47991;42.974;12.082;2023-06-04T13:21:34;8.10;;;3.90;;
62037;SDS011;47991;42.974;12.082;2023-06-04T13:24:02;6.80;;;3.70;;
62037;SDS011;47991;42.974;12.082;2023-06-04T13:26:28;6.60;;;3.80;;
62037;SDS011;47991;42.974;12.082;2023-06-04T13:28:54;6.80;;;3.60;;
62037;SDS011;47991;42.974;12.082;2023-06-04T13:31:20;7.70;;;3.50;;
62037;SDS011;47991;42.974;12.082;2023-06-04T13:33:46;7.50;;;4.10;;
62037;SDS011;47991;42.974;12.082;2023-06-04T13:36:13;7.20;;;4.40;;
62037;SDS011;47991;42.974;12.082;2023-06-04T13:38:39;8.60;;;4.50;;
62037;SDS011;47991;42.974;12.082;2023-06-04T13:41:07;7.20;;;4.30;;
62037;SDS011;47991;42.974;12.082;2023-06-04T13:43:33;7.30;;;4.40;;
62037;SDS011;47991;42.974;12.082;2023-06-04T13:46:00;9.60;;;5.10;;
62037;SDS011;47991;42.974;12.082;2023-06-04T13:48:26;8.80;;;4.60;;
62037;SDS011;47991;42.974;12.082;2023-06-04T13:50:53;7.70;;;4.90;;
62037;SDS011;47991;42.974;12.082;2023-06-04T13:53:19;8.00;;;5.10;;
62037;SDS011;47991;42.974;12.082;2023-06-04T13:55:45;10.00;;;5.50;;
62037;SDS011;47991;42.974;12.082;2023-06-04T13:58:12;9.20;;;5.80;;
62037;SDS011;47991;42.974;12.082;2023-06-04T14:00:40;12.00;;;5.00;;
62037;SDS011;47991;42.974;12.082;2023-06-04T14:03:06;9.10;;;4.90;;
62037;SDS011;47991;42.974;12.082;2023-06-04T14:05:33;8.70;;;5.00;;
62037;SDS011;47991;42.974;12.082;2023-06-04T14:07:59;8.50;;;5.30;;
62037;SDS011;47991;42.974;12.082;2023-06-04T14:10:25;9.50;;;4.90;;
62037;SDS011;47991;42.974;12.082;2023-06-04T14:12:51;7.40;;;4.70;;
62037;SDS011;47991;42.974;12.082;2023-06-04T14:15:17;8.30;;;5.40;;
62037;SDS011;47991;42.974;12.082;2023-06-04T14:17:44;9.10;;;5.30;;
62037;SDS011;47991;42.974;12.082;2023-06-04T14:20:10;9.00;;;5.80;;
62037;SDS011;47991;42.974;12.082;2023-06-04T14:22:36;9.90;;;5.50;;
62037;SDS011;47991;42.974;12.082;2023-06-04T14:25:04;9.40;;;5.90;;
62037;SDS011;47991;42.974;12.082;2023-06-04T14:27:34;8.60;;;5.50;;
62037;SDS011;47991;42.974;12.082;2023-06-04T14:30:01;7.90;;;4.90;;
62037;SDS011;47991;42.974;12.082;2023-06-04T14:32:28;12.10;;;5.80;;
62037;SDS011;47991;42.974;12.082;2023-06-04T14:34:55;9.10;;;4.70;;
62037;SDS011;47991;42.974;12.082;2023-06-04T14:37:22;9.70;;;5.30;;
62037;SDS011;47991;42.974;12.082;2023-06-04T14:39:48;10.40;;;5.80;;
62037;SDS011;47991;42.974;12.082;2023-06-04T14:42:15;10.10;;;5.30;;
62037;SDS011;47991;42.974;12.082;2023-06-04T14:44:42;8.60;;;5.50;;
62037;SDS011;47991;42.974;12.082;2023-06-04T14:47:08;10.20;;;5.80;;
62037;SDS011;47991;42.974;12.082;2023-06-04T14:49:36;10.60;;;5.70;;
62037;SDS011;47991;42.974;12.082;2023-06-04T14:52:03;10.10;;;6.00;;
62037;SDS011;47991;42.974;12.082;2023-06-04T14:54:29;8.90;;;5.90;;